createdAt,value
2023-01-31T00:01:45.171Z,98.75
2023-01-31T00:04:13.454Z,99.77
2023-01-31T00:06:43.145Z,98.75
2023-01-31T00:09:13.082Z,98.77
2023-01-31T00:11:41.634Z,99.60
2023-01-31T00:14:11.046Z,100.00
2023-01-31T00:16:40.232Z,99.22
2023-01-31T00:19:08.052Z,98.96
2023-01-31T00:21:36.188Z,98.17
2023-01-31T00:24:05.727Z,97.03
2023-01-31T00:26:36.171Z,98.00
2023-01-31T00:29:06.469Z,100.00
2023-01-31T00:31:36.239Z,99.07
2023-01-31T00:34:05.439Z,99.15
2023-01-31T00:36:35.154Z,100.00
2023-01-31T00:39:05.264Z,100.00
2023-01-31T00:41:33.415Z,100.00
2023-01-31T00:44:01.575Z,100.00
2023-01-31T00:46:29.729Z,100.00
2023-01-31T00:48:57.580Z,99.49
2023-01-31T00:51:27.839Z,98.83
2023-01-31T00:53:56.131Z,100.00
2023-01-31T00:56:25.738Z,99.67
2023-01-31T00:58:54.437Z,100.00
2023-01-31T01:01:23.957Z,99.89
2023-01-31T01:03:52.242Z,99.81
2023-01-31T01:06:20.414Z,99.25
2023-01-31T01:08:49.785Z,97.99
2023-01-31T01:11:19.673Z,95.49
2023-01-31T01:13:48.428Z,96.06
2023-01-31T01:16:18.812Z,97.08
2023-01-31T01:18:49.201Z,94.69
2023-01-31T01:21:19.129Z,94.13
2023-01-31T01:23:47.547Z,96.33
2023-01-31T01:26:19.150Z,95.76
2023-01-31T01:28:47.709Z,95.82
2023-01-31T01:31:17.218Z,95.67
2023-01-31T01:33:45.933Z,93.97
2023-01-31T01:36:17.233Z,92.78
2023-01-31T01:38:46.676Z,91.55
2023-01-31T01:41:16.736Z,90.92
2023-01-31T01:43:46.746Z,90.00
2023-01-31T01:46:18.459Z,92.39
2023-01-31T01:48:49.605Z,93.94
2023-01-31T01:51:20.054Z,92.56
2023-01-31T01:53:51.339Z,91.67
2023-01-31T01:56:24.804Z,94.89
2023-01-31T01:58:56.620Z,91.16
2023-01-31T02:01:28.503Z,94.14
2023-01-31T02:03:56.342Z,93.31
2023-01-31T02:06:24.523Z,94.68
2023-01-31T02:08:52.927Z,94.61
2023-01-31T02:11:25.182Z,93.33
2023-01-31T02:13:59.798Z,94.33
2023-01-31T02:16:28.041Z,94.96
2023-01-31T02:18:56.928Z,94.12
2023-01-31T02:22:01.200Z,96.47
2023-01-31T02:24:41.321Z,95.34
2023-01-31T02:27:30.347Z,95.41
2023-01-31T02:30:20.492Z,96.29
2023-01-31T02:33:03.877Z,95.36
2023-01-31T02:35:48.272Z,94.62
2023-01-31T02:38:27.451Z,92.51
2023-01-31T02:41:06.020Z,93.96
2023-01-31T02:44:00.644Z,94.98
2023-01-31T02:46:39.505Z,93.79
2023-01-31T02:49:34.438Z,94.38
2023-01-31T02:52:17.969Z,94.81
2023-01-31T02:55:12.558Z,95.09
2023-01-31T02:57:42.144Z,95.00
2023-01-31T03:00:12.392Z,95.41
2023-01-31T03:02:40.325Z,93.27
2023-01-31T03:05:15.450Z,93.89
2023-01-31T03:07:49.096Z,93.64
2023-01-31T03:10:44.804Z,93.11
2023-01-31T03:13:26.669Z,92.43
2023-01-31T03:16:23.444Z,92.18
2023-01-31T03:18:56.710Z,91.96
2023-01-31T03:21:31.778Z,90.91
2023-01-31T03:24:00.568Z,90.16
2023-01-31T03:26:29.757Z,92.30
2023-01-31T03:29:01.506Z,91.28
2023-01-31T03:31:33.880Z,90.34
2023-01-31T03:34:05.503Z,92.29
2023-01-31T03:36:40.885Z,91.84
2023-01-31T03:39:16.297Z,92.03
2023-01-31T03:41:56.602Z,90.39
2023-01-31T03:44:32.635Z,89.53
2023-01-31T03:47:05.484Z,89.59
2023-01-31T03:49:35.934Z,90.25
2023-01-31T03:52:09.154Z,90.68
2023-01-31T03:54:42.522Z,90.81
2023-01-31T03:57:17.108Z,90.79
2023-01-31T03:59:48.608Z,90.19
2023-01-31T04:02:18.558Z,90.38
2023-01-31T04:04:50.547Z,88.96
2023-01-31T04:07:19.750Z,88.16
2023-01-31T04:09:47.743Z,88.17
2023-01-31T04:12:16.535Z,88.05
2023-01-31T04:14:44.563Z,89.52
2023-01-31T04:17:12.312Z,90.42
2023-01-31T04:19:40.095Z,92.42
2023-01-31T04:22:08.058Z,91.25
2023-01-31T04:24:37.755Z,90.90
2023-01-31T04:27:05.577Z,90.32
2023-01-31T04:29:33.346Z,89.86
2023-01-31T04:32:01.227Z,90.37
2023-01-31T04:34:29.036Z,90.05
2023-01-31T04:36:56.975Z,89.04
2023-01-31T04:39:24.742Z,89.41
2023-01-31T04:41:54.013Z,87.84
2023-01-31T04:44:21.780Z,88.63
2023-01-31T04:46:49.597Z,87.86
2023-01-31T04:49:17.383Z,86.80
2023-01-31T04:51:45.244Z,86.36
2023-01-31T04:54:13.044Z,87.79
2023-01-31T04:56:40.813Z,87.12
2023-01-31T04:59:09.883Z,85.51
2023-01-31T05:01:37.703Z,86.12
2023-01-31T05:04:05.901Z,88.07
2023-01-31T05:06:33.642Z,86.91
2023-01-31T05:09:01.530Z,87.46
2023-01-31T05:11:29.814Z,87.27
2023-01-31T05:13:57.570Z,87.06
2023-01-31T05:16:26.759Z,88.12
2023-01-31T05:18:54.647Z,87.01
2023-01-31T05:21:22.418Z,86.11
2023-01-31T05:23:50.223Z,85.51
2023-01-31T05:26:18.033Z,85.30
2023-01-31T05:28:45.843Z,84.48
2023-01-31T05:31:14.274Z,84.38
2023-01-31T05:33:44.508Z,84.43
2023-01-31T05:36:12.323Z,86.00
2023-01-31T05:38:40.120Z,88.43
2023-01-31T05:41:07.970Z,88.33
2023-01-31T05:43:36.730Z,88.68
2023-01-31T05:46:05.199Z,91.09
2023-01-31T05:48:33.513Z,90.60
2023-01-31T05:51:03.234Z,90.19
2023-01-31T05:53:31.273Z,90.24
2023-01-31T05:55:59.012Z,88.97
2023-01-31T05:58:26.745Z,88.96
2023-01-31T06:00:57.227Z,89.77
2023-01-31T06:03:25.144Z,88.37
2023-01-31T06:05:52.926Z,88.20
2023-01-31T06:08:22.072Z,88.11
2023-01-31T06:10:49.811Z,87.47
2023-01-31T06:13:17.622Z,86.17
2023-01-31T06:15:45.891Z,85.55
2023-01-31T06:18:14.588Z,84.54
2023-01-31T06:20:42.490Z,84.11
2023-01-31T06:23:10.208Z,83.61
2023-01-31T06:25:39.392Z,81.79
2023-01-31T06:28:07.206Z,83.47
2023-01-31T06:30:35.061Z,84.42
2023-01-31T06:33:03.356Z,84.28
2023-01-31T06:35:33.826Z,85.04
2023-01-31T06:38:01.596Z,86.05
2023-01-31T06:40:30.747Z,85.09
2023-01-31T06:43:00.368Z,85.37
2023-01-31T06:45:28.133Z,86.30
2023-01-31T06:47:56.094Z,86.51
2023-01-31T06:50:23.993Z,85.41
2023-01-31T06:52:51.710Z,85.34
2023-01-31T06:55:19.971Z,84.07
2023-01-31T06:57:48.801Z,85.14
2023-01-31T07:00:19.601Z,83.68
2023-01-31T07:02:47.853Z,85.65
2023-01-31T07:05:16.017Z,85.46
2023-01-31T07:07:43.772Z,85.91
2023-01-31T07:10:12.456Z,85.40
2023-01-31T07:12:40.371Z,84.84
2023-01-31T07:15:09.536Z,84.54
2023-01-31T07:17:38.668Z,86.85
2023-01-31T07:20:07.647Z,87.07
2023-01-31T07:22:35.480Z,87.71
2023-01-31T07:25:03.224Z,86.50
2023-01-31T07:27:31.234Z,84.52
2023-01-31T07:29:59.021Z,87.36
2023-01-31T07:32:31.037Z,85.46
2023-01-31T07:35:00.250Z,84.70
2023-01-31T07:37:28.019Z,84.17
2023-01-31T07:39:55.772Z,83.99
2023-01-31T07:42:23.541Z,84.88
2023-01-31T07:44:51.326Z,83.70
2023-01-31T07:47:19.130Z,83.75
2023-01-31T07:49:46.848Z,84.34
2023-01-31T07:52:15.918Z,85.40
2023-01-31T07:54:43.673Z,84.56
2023-01-31T07:57:11.786Z,83.78
2023-01-31T07:59:39.682Z,85.51
2023-01-31T08:02:28.683Z,84.74
2023-01-31T08:04:56.594Z,84.42
2023-01-31T08:07:27.116Z,84.78
2023-01-31T08:09:55.218Z,84.83
2023-01-31T08:12:23.158Z,83.49
2023-01-31T08:14:50.867Z,83.52
2023-01-31T08:17:18.715Z,84.84
2023-01-31T08:19:46.486Z,84.18
2023-01-31T08:22:14.325Z,84.46
2023-01-31T08:24:43.447Z,83.08
2023-01-31T08:27:11.224Z,83.00
2023-01-31T08:29:38.999Z,81.71
2023-01-31T08:32:07.525Z,82.30
2023-01-31T08:34:35.442Z,83.04
2023-01-31T08:37:03.239Z,83.04
2023-01-31T08:39:30.998Z,84.28
2023-01-31T08:42:00.163Z,84.29
2023-01-31T08:44:27.931Z,86.34
2023-01-31T08:46:55.682Z,85.74
2023-01-31T08:49:23.491Z,85.53
2023-01-31T08:51:51.268Z,84.62
2023-01-31T08:54:19.040Z,84.46
2023-01-31T08:56:46.816Z,83.85
2023-01-31T08:59:16.065Z,85.47
2023-01-31T09:01:46.539Z,85.00
2023-01-31T09:04:14.399Z,83.73
2023-01-31T09:06:42.229Z,83.53
2023-01-31T09:09:10.922Z,82.58
2023-01-31T09:11:39.578Z,83.08
2023-01-31T09:14:07.435Z,81.78
2023-01-31T09:16:36.620Z,82.50
2023-01-31T09:19:04.519Z,81.39
2023-01-31T09:21:32.516Z,81.69
2023-01-31T09:24:03.826Z,80.81
2023-01-31T09:26:32.268Z,80.75
2023-01-31T09:29:01.561Z,81.95
2023-01-31T09:31:30.208Z,80.50
2023-01-31T09:33:59.461Z,81.21
2023-01-31T09:36:27.831Z,82.22
2023-01-31T09:38:56.945Z,83.14
2023-01-31T09:41:31.137Z,83.89
2023-01-31T09:44:02.876Z,83.16
2023-01-31T09:46:37.265Z,82.95
2023-01-31T09:49:11.930Z,83.03
2023-01-31T09:51:41.163Z,84.19
2023-01-31T09:54:20.757Z,79.35
2023-01-31T09:56:58.787Z,78.19
2023-01-31T09:59:33.573Z,79.05
2023-01-31T10:02:11.825Z,79.93
2023-01-31T10:04:59.180Z,77.97
2023-01-31T10:07:32.115Z,78.02
2023-01-31T10:10:07.829Z,77.97
2023-01-31T10:12:41.974Z,77.81
2023-01-31T10:15:19.036Z,78.31
2023-01-31T10:17:50.952Z,76.28
2023-01-31T10:20:22.942Z,76.11
2023-01-31T10:22:59.408Z,75.71
2023-01-31T10:25:29.185Z,74.26
2023-01-31T10:28:03.516Z,74.44
2023-01-31T10:30:41.291Z,75.40
2023-01-31T10:33:21.483Z,72.88
2023-01-31T10:35:53.735Z,73.09
2023-01-31T10:38:27.821Z,73.47
2023-01-31T10:41:01.846Z,73.03
2023-01-31T10:43:40.733Z,72.27
2023-01-31T10:46:12.787Z,71.44
2023-01-31T10:48:45.124Z,71.31
2023-01-31T10:51:30.991Z,71.34
2023-01-31T10:54:14.926Z,71.86
2023-01-31T10:56:45.358Z,71.30
2023-01-31T10:59:20.256Z,70.24
2023-01-31T11:01:48.123Z,72.26
2023-01-31T11:04:25.388Z,71.35
2023-01-31T11:06:55.391Z,71.06
2023-01-31T11:09:25.600Z,70.19
2023-01-31T11:11:58.431Z,72.25
2023-01-31T11:14:26.603Z,72.16
2023-01-31T11:17:01.226Z,71.79
2023-01-31T11:19:35.661Z,69.60
2023-01-31T11:22:05.631Z,72.93
2023-01-31T11:24:35.575Z,74.50
2023-01-31T11:27:07.061Z,74.38
2023-01-31T11:29:39.149Z,72.88
2023-01-31T11:32:18.862Z,73.37
2023-01-31T11:34:57.963Z,71.31
2023-01-31T11:37:28.480Z,72.81
2023-01-31T11:39:58.246Z,71.16
2023-01-31T11:42:26.617Z,69.47
2023-01-31T11:44:59.898Z,71.64
2023-01-31T11:47:34.128Z,71.43
2023-01-31T11:50:03.669Z,73.47
2023-01-31T11:52:35.591Z,72.46
2023-01-31T11:55:07.724Z,71.51
2023-01-31T11:57:39.339Z,71.05
2023-01-31T12:00:21.855Z,70.81
2023-01-31T12:02:54.859Z,69.62
2023-01-31T12:05:35.470Z,71.83
2023-01-31T12:08:04.873Z,71.22
2023-01-31T12:10:37.175Z,71.70
2023-01-31T12:13:19.000Z,72.02
2023-01-31T12:15:52.292Z,71.62
2023-01-31T12:18:42.240Z,72.21
2023-01-31T12:21:15.871Z,70.72
2023-01-31T12:23:59.430Z,70.63
2023-01-31T12:26:35.687Z,72.96
2023-01-31T12:29:17.291Z,73.75
2023-01-31T12:32:09.992Z,70.41
2023-01-31T12:35:02.446Z,72.94
2023-01-31T12:37:46.954Z,70.52
2023-01-31T12:40:35.870Z,68.65
2023-01-31T12:43:06.524Z,70.64
2023-01-31T12:45:50.599Z,70.81
2023-01-31T12:48:47.983Z,71.28
2023-01-31T12:51:29.860Z,68.44
2023-01-31T12:54:11.659Z,68.25
2023-01-31T12:56:58.221Z,67.93
2023-01-31T12:59:38.973Z,67.21
2023-01-31T13:02:24.317Z,68.59
2023-01-31T13:04:56.869Z,66.96
2023-01-31T13:07:31.965Z,68.24
2023-01-31T13:10:04.503Z,67.70
2023-01-31T13:12:36.083Z,68.21
2023-01-31T13:15:07.869Z,68.79
2023-01-31T13:17:40.758Z,69.66
2023-01-31T13:20:27.259Z,70.94
2023-01-31T13:23:00.027Z,70.36
2023-01-31T13:25:38.368Z,66.35
2023-01-31T13:28:16.228Z,66.87
2023-01-31T13:30:47.554Z,66.53
2023-01-31T13:33:24.755Z,67.91
2023-01-31T13:36:02.904Z,69.48
2023-01-31T13:38:38.436Z,68.69
2023-01-31T13:41:09.490Z,67.84
2023-01-31T13:43:38.563Z,69.98
2023-01-31T13:46:10.499Z,68.22
2023-01-31T13:48:41.942Z,68.11
2023-01-31T13:51:17.838Z,69.89
2023-01-31T13:53:50.727Z,70.62
2023-01-31T13:56:26.471Z,70.74
2023-01-31T13:58:56.811Z,71.43
2023-01-31T14:01:27.181Z,71.17
2023-01-31T14:04:28.265Z,69.11
2023-01-31T14:07:11.822Z,70.98
2023-01-31T14:09:43.359Z,71.13
2023-01-31T14:12:35.864Z,71.58
2023-01-31T14:15:51.145Z,73.68
2023-01-31T14:18:51.531Z,72.15
2023-01-31T14:21:45.859Z,74.56
2023-01-31T14:24:21.960Z,74.50
2023-01-31T14:26:55.286Z,74.38
2023-01-31T14:29:24.269Z,72.98
2023-01-31T14:31:56.805Z,75.33
2023-01-31T14:34:27.286Z,73.91
2023-01-31T14:37:09.448Z,73.20
2023-01-31T14:39:55.449Z,71.12
2023-01-31T14:42:54.232Z,72.99
2023-01-31T14:45:57.336Z,72.94
2023-01-31T14:48:43.566Z,72.00
2023-01-31T14:51:21.596Z,69.92
2023-01-31T14:54:05.585Z,69.55
2023-01-31T14:56:52.383Z,71.31
2023-01-31T14:59:30.000Z,69.75
2023-01-31T15:01:58.839Z,71.33
2023-01-31T15:04:29.066Z,72.05
2023-01-31T15:06:58.234Z,71.77
2023-01-31T15:09:38.061Z,73.89
2023-01-31T15:12:07.991Z,74.34
2023-01-31T15:14:41.062Z,73.30
2023-01-31T15:17:27.613Z,72.99
2023-01-31T15:20:15.427Z,72.19
2023-01-31T15:22:45.226Z,73.13
2023-01-31T15:25:25.729Z,75.21
2023-01-31T15:27:56.671Z,75.31
2023-01-31T15:30:26.001Z,75.61
2023-01-31T15:32:57.976Z,74.55
2023-01-31T15:35:30.978Z,74.07
2023-01-31T15:38:03.417Z,75.81
2023-01-31T15:40:32.040Z,75.17
2023-01-31T15:43:18.108Z,74.53
2023-01-31T15:45:47.754Z,76.00
2023-01-31T15:48:17.428Z,75.65
2023-01-31T15:50:54.708Z,76.38
2023-01-31T15:53:24.447Z,75.06
2023-01-31T15:55:55.423Z,76.04
2023-01-31T15:58:25.771Z,75.48
2023-01-31T16:00:55.919Z,75.42
2023-01-31T16:03:27.415Z,76.98
2023-01-31T16:05:58.440Z,76.83
2023-01-31T16:08:30.124Z,76.76
2023-01-31T16:10:59.105Z,76.89
2023-01-31T16:13:27.829Z,77.96
2023-01-31T16:15:55.861Z,78.31
2023-01-31T16:18:24.486Z,78.34
2023-01-31T16:20:54.367Z,78.94
2023-01-31T16:23:31.720Z,78.70
2023-01-31T16:26:07.411Z,78.78
2023-01-31T16:28:40.526Z,78.92
2023-01-31T16:31:10.540Z,80.36
2023-01-31T16:33:40.346Z,80.66
2023-01-31T16:36:15.164Z,79.54
2023-01-31T16:38:57.413Z,80.70
2023-01-31T16:41:40.231Z,84.89
2023-01-31T16:44:14.590Z,86.68
2023-01-31T16:46:45.995Z,90.39
2023-01-31T16:49:23.427Z,90.30
2023-01-31T16:51:52.170Z,94.31
2023-01-31T16:54:23.403Z,93.41
2023-01-31T16:57:07.932Z,94.75
2023-01-31T16:59:48.898Z,100.00
2023-01-31T17:02:21.562Z,100.00
2023-01-31T17:04:51.773Z,100.00
2023-01-31T17:07:22.338Z,100.00
2023-01-31T17:09:55.649Z,100.00
2023-01-31T17:12:24.858Z,100.00
2023-01-31T17:15:00.165Z,100.00
2023-01-31T17:17:30.993Z,100.00
2023-01-31T17:19:58.786Z,100.00
2023-01-31T17:22:26.779Z,100.00
2023-01-31T17:24:55.898Z,100.00
2023-01-31T17:27:25.052Z,100.00
2023-01-31T17:29:52.962Z,100.00
2023-01-31T17:32:22.293Z,100.00
2023-01-31T17:34:50.059Z,100.00
2023-01-31T17:37:26.789Z,100.00
2023-01-31T17:40:00.890Z,100.00
2023-01-31T17:42:28.673Z,100.00
2023-01-31T17:44:56.403Z,100.00
2023-01-31T17:47:26.882Z,98.94
2023-01-31T17:49:54.850Z,100.00
2023-01-31T17:52:22.637Z,99.55
2023-01-31T17:54:50.660Z,100.00
2023-01-31T17:57:19.863Z,100.00
2023-01-31T17:59:47.579Z,100.00
2023-01-31T18:02:15.365Z,100.00
2023-01-31T18:04:44.338Z,100.00
2023-01-31T18:07:16.449Z,99.90
2023-01-31T18:09:44.295Z,99.35
2023-01-31T18:12:12.080Z,98.78
2023-01-31T18:14:41.291Z,99.23
2023-01-31T18:17:09.142Z,98.08
2023-01-31T18:19:37.094Z,98.33
2023-01-31T18:22:04.841Z,98.64
2023-01-31T18:24:32.936Z,98.69
2023-01-31T18:27:01.128Z,98.53
2023-01-31T18:29:29.769Z,98.97
2023-01-31T18:32:02.546Z,98.80
2023-01-31T18:34:30.649Z,99.46
2023-01-31T18:36:58.532Z,98.73
2023-01-31T18:39:26.415Z,99.73
2023-01-31T18:41:54.304Z,99.19
2023-01-31T18:44:22.012Z,99.87
2023-01-31T18:46:49.879Z,100.00
2023-01-31T18:49:20.179Z,100.00
2023-01-31T18:51:49.641Z,99.30
2023-01-31T18:54:17.430Z,99.78
2023-01-31T18:56:45.342Z,99.15
2023-01-31T18:59:13.026Z,98.99
2023-01-31T19:01:43.161Z,99.28
2023-01-31T19:04:11.333Z,97.99
2023-01-31T19:06:41.529Z,99.44
2023-01-31T19:09:10.183Z,98.78
2023-01-31T19:11:38.064Z,99.42
2023-01-31T19:14:07.515Z,98.96
2023-01-31T19:16:39.822Z,100.00
2023-01-31T19:19:08.328Z,99.03
2023-01-31T19:21:37.352Z,99.72
2023-01-31T19:24:08.540Z,99.32
2023-01-31T19:26:36.988Z,98.62
2023-01-31T19:29:08.058Z,98.75
2023-01-31T19:31:37.165Z,98.27
2023-01-31T19:34:06.658Z,96.87
2023-01-31T19:36:36.618Z,97.48
2023-01-31T19:39:08.353Z,98.23
2023-01-31T19:41:36.487Z,98.69
2023-01-31T19:44:05.072Z,100.00
2023-01-31T19:46:35.732Z,99.55
2023-01-31T19:49:03.827Z,99.75
2023-01-31T19:51:31.905Z,98.62
2023-01-31T19:54:02.749Z,99.07
2023-01-31T19:56:32.587Z,98.51
2023-01-31T19:59:00.946Z,97.58
2023-01-31T20:01:28.737Z,99.18
2023-01-31T20:03:56.508Z,99.06
2023-01-31T20:06:26.586Z,98.23
2023-01-31T20:08:56.462Z,100.00
2023-01-31T20:11:25.069Z,100.00
2023-01-31T20:13:55.483Z,99.55
2023-01-31T20:16:23.476Z,98.25
2023-01-31T20:18:51.577Z,98.97
2023-01-31T20:21:21.008Z,99.63
2023-01-31T20:23:49.603Z,99.93
2023-01-31T20:26:18.588Z,99.51
2023-01-31T20:28:46.468Z,100.00
2023-01-31T20:31:16.870Z,100.00
2023-01-31T20:33:45.008Z,100.00
2023-01-31T20:36:13.411Z,100.00
2023-01-31T20:38:41.711Z,100.00
2023-01-31T20:41:10.005Z,100.00
2023-01-31T20:43:38.537Z,100.00
2023-01-31T20:46:08.141Z,100.00
2023-01-31T20:48:37.668Z,100.00
2023-01-31T20:51:05.862Z,100.00
2023-01-31T20:53:34.565Z,100.00
2023-01-31T20:56:04.235Z,100.00
2023-01-31T20:58:33.816Z,100.00
2023-01-31T21:01:05.489Z,100.00
2023-01-31T21:03:35.003Z,100.00
2023-01-31T21:06:05.005Z,100.00
2023-01-31T21:08:32.965Z,100.00
2023-01-31T21:11:00.973Z,100.00
2023-01-31T21:13:30.025Z,100.00
2023-01-31T21:15:59.348Z,100.00
2023-01-31T21:18:28.746Z,100.00
2023-01-31T21:20:56.585Z,100.00
2023-01-31T21:23:26.084Z,100.00
2023-01-31T21:25:54.539Z,100.00
2023-01-31T21:28:27.198Z,100.00
2023-01-31T21:30:59.920Z,100.00
2023-01-31T21:33:28.104Z,100.00
2023-01-31T21:36:01.304Z,100.00
2023-01-31T21:38:30.395Z,100.00
2023-01-31T21:41:15.657Z,100.00
2023-01-31T21:43:43.778Z,100.00
2023-01-31T21:46:13.070Z,100.00
2023-01-31T21:48:41.511Z,100.00
2023-01-31T21:51:12.323Z,100.00
2023-01-31T21:53:42.211Z,100.00
2023-01-31T21:56:12.240Z,100.00
2023-01-31T21:58:40.763Z,100.00
2023-01-31T22:01:11.122Z,100.00
2023-01-31T22:03:42.482Z,100.00
2023-01-31T22:06:12.115Z,100.00
2023-01-31T22:08:41.319Z,100.00
2023-01-31T22:11:10.722Z,100.00
2023-01-31T22:13:39.132Z,100.00
2023-01-31T22:16:09.708Z,100.00
2023-01-31T22:18:38.473Z,100.00
2023-01-31T22:21:08.002Z,100.00
2023-01-31T22:23:37.601Z,100.00
2023-01-31T22:26:09.197Z,100.00
2023-01-31T22:28:38.110Z,100.00
2023-01-31T22:31:07.659Z,100.00
2023-01-31T22:33:38.007Z,100.00
2023-01-31T22:36:07.463Z,100.00
2023-01-31T22:38:35.818Z,100.00
2023-01-31T22:41:07.232Z,100.00
2023-01-31T22:43:39.545Z,100.00
2023-01-31T22:46:08.849Z,100.00
2023-01-31T22:48:37.038Z,100.00
2023-01-31T22:51:06.910Z,100.00
2023-01-31T22:53:36.069Z,100.00
2023-01-31T22:56:05.713Z,100.00
2023-01-31T22:58:33.791Z,100.00
2023-01-31T23:01:03.422Z,100.00
2023-01-31T23:03:31.182Z,100.00
2023-01-31T23:05:58.850Z,100.00
2023-01-31T23:08:26.701Z,100.00
2023-01-31T23:10:54.521Z,100.00
2023-01-31T23:13:22.256Z,100.00
2023-01-31T23:15:50.118Z,100.00
2023-01-31T23:18:19.276Z,100.00
2023-01-31T23:20:47.073Z,100.00
2023-01-31T23:23:14.822Z,100.00
2023-01-31T23:25:42.550Z,100.00
2023-01-31T23:28:10.323Z,100.00
2023-01-31T23:30:38.139Z,100.00
2023-01-31T23:33:05.996Z,99.67
2023-01-31T23:35:35.148Z,99.41
2023-01-31T23:38:03.398Z,98.40
2023-01-31T23:40:31.123Z,98.25
2023-01-31T23:42:58.866Z,95.44
2023-01-31T23:45:26.637Z,94.71
2023-01-31T23:47:54.326Z,92.99
2023-01-31T23:50:22.388Z,93.68
2023-01-31T23:52:52.015Z,93.49
2023-01-31T23:55:22.695Z,91.97
2023-01-31T23:57:50.677Z,91.20
